Abita Springs, Louisiana
Current Conditions -  °F | °C
As of 3:53 AM on Saturday 25 Oct 2014 (Local Time) from KASD Reporting Station
Clear Clear  
Wind Chill: 46°   Ceiling: Unl
Heat Index: 46°   Visibility: 10mi
Dew Point: 44°   Wind: 3mph
Humidity: 93%   Direction: 360°N
Pressure: 30.08"   Gusts: NA
Location:  30.48°N, 90.04°W
Report Text: KASD 250853Z AUTO 36003KT 10SM CLR 08/07 A3008 RMK AO2 SLP187 T00780067 58004
Loading
Personal Weather Stations






























Interactive Weather Map
Tropical Storm Tracking
New forecast layout! Learn more

10-Day Weather Forecast

Advertisements
Track Severe Weather on mobile